sensor_id;sensor_type;location;lat;lon;timestamp;P1;durP1;ratioP1;P2;durP2;ratioP2
7737;SDS011;29398;45.328;5.558;2024-02-23T00:00:59;3.35;;;2.40;;
7737;SDS011;29398;45.328;5.558;2024-02-23T00:02:00;6.45;;;2.63;;
7737;SDS011;29398;45.328;5.558;2024-02-23T00:03:02;4.03;;;2.42;;
7737;SDS011;29398;45.328;5.558;2024-02-23T00:04:04;3.45;;;2.83;;
7737;SDS011;29398;45.328;5.558;2024-02-23T00:05:07;3.60;;;2.72;;
7737;SDS011;29398;45.328;5.558;2024-02-23T00:06:08;5.35;;;2.42;;
7737;SDS011;29398;45.328;5.558;2024-02-23T00:07:10;4.40;;;2.72;;
7737;SDS011;29398;45.328;5.558;2024-02-23T00:08:12;3.47;;;2.40;;
7737;SDS011;29398;45.328;5.558;2024-02-23T00:09:15;2.63;;;2.08;;
7737;SDS011;29398;45.328;5.558;2024-02-23T00:10:16;3.03;;;2.00;;
7737;SDS011;29398;45.328;5.558;2024-02-23T00:11:18;5.32;;;2.45;;
7737;SDS011;29398;45.328;5.558;2024-02-23T00:12:19;3.08;;;2.00;;
7737;SDS011;29398;45.328;5.558;2024-02-23T00:13:21;5.80;;;3.00;;
7737;SDS011;29398;45.328;5.558;2024-02-23T00:14:22;3.63;;;1.88;;
7737;SDS011;29398;45.328;5.558;2024-02-23T00:15:24;3.03;;;2.00;;
7737;SDS011;29398;45.328;5.558;2024-02-23T00:16:25;3.38;;;1.73;;
7737;SDS011;29398;45.328;5.558;2024-02-23T00:17:27;2.75;;;1.98;;
7737;SDS011;29398;45.328;5.558;2024-02-23T00:18:28;2.83;;;1.80;;
7737;SDS011;29398;45.328;5.558;2024-02-23T00:19:31;3.58;;;2.00;;
7737;SDS011;29398;45.328;5.558;2024-02-23T00:20:32;1.75;;;1.55;;
7737;SDS011;29398;45.328;5.558;2024-02-23T00:21:34;2.70;;;1.67;;
7737;SDS011;29398;45.328;5.558;2024-02-23T00:22:36;2.15;;;1.40;;
7737;SDS011;29398;45.328;5.558;2024-02-23T00:23:38;2.17;;;1.27;;
7737;SDS011;29398;45.328;5.558;2024-02-23T00:24:40;2.35;;;1.60;;
7737;SDS011;29398;45.328;5.558;2024-02-23T00:25:42;2.47;;;1.08;;
7737;SDS011;29398;45.328;5.558;2024-02-23T00:26:43;1.27;;;1.15;;
7737;SDS011;29398;45.328;5.558;2024-02-23T00:27:45;2.50;;;1.63;;
7737;SDS011;29398;45.328;5.558;2024-02-23T00:28:47;4.95;;;3.00;;
7737;SDS011;29398;45.328;5.558;2024-02-23T00:29:48;14.07;;;6.43;;
7737;SDS011;29398;45.328;5.558;2024-02-23T00:30:50;9.05;;;4.20;;
7737;SDS011;29398;45.328;5.558;2024-02-23T00:31:51;8.98;;;4.43;;
7737;SDS011;29398;45.328;5.558;2024-02-23T00:32:53;12.25;;;5.53;;
7737;SDS011;29398;45.328;5.558;2024-02-23T00:33:54;12.88;;;6.53;;
7737;SDS011;29398;45.328;5.558;2024-02-23T00:34:56;17.60;;;9.02;;
7737;SDS011;29398;45.328;5.558;2024-02-23T00:35:58;17.85;;;8.68;;
7737;SDS011;29398;45.328;5.558;2024-02-23T00:37:00;23.08;;;13.00;;
7737;SDS011;29398;45.328;5.558;2024-02-23T00:38:01;8.20;;;4.38;;
7737;SDS011;29398;45.328;5.558;2024-02-23T00:39:03;3.78;;;2.92;;
7737;SDS011;29398;45.328;5.558;2024-02-23T00:40:06;4.50;;;2.20;;
7737;SDS011;29398;45.328;5.558;2024-02-23T00:41:10;7.65;;;5.00;;
7737;SDS011;29398;45.328;5.558;2024-02-23T00:42:11;12.60;;;7.72;;
7737;SDS011;29398;45.328;5.558;2024-02-23T00:43:13;13.15;;;7.80;;
7737;SDS011;29398;45.328;5.558;2024-02-23T00:44:14;12.00;;;8.05;;
7737;SDS011;29398;45.328;5.558;2024-02-23T00:45:15;15.40;;;10.95;;
7737;SDS011;29398;45.328;5.558;2024-02-23T00:46:17;7.00;;;4.90;;
7737;SDS011;29398;45.328;5.558;2024-02-23T00:47:18;14.02;;;9.68;;
7737;SDS011;29398;45.328;5.558;2024-02-23T00:48:20;14.10;;;8.40;;
7737;SDS011;29398;45.328;5.558;2024-02-23T00:49:21;9.73;;;7.65;;
7737;SDS011;29398;45.328;5.558;2024-02-23T00:50:22;9.73;;;6.97;;
7737;SDS011;29398;45.328;5.558;2024-02-23T00:51:26;5.32;;;4.03;;
7737;SDS011;29398;45.328;5.558;2024-02-23T00:52:27;5.50;;;4.00;;
7737;SDS011;29398;45.328;5.558;2024-02-23T00:53:30;3.22;;;2.78;;
7737;SDS011;29398;45.328;5.558;2024-02-23T00:54:32;4.63;;;2.70;;
7737;SDS011;29398;45.328;5.558;2024-02-23T00:55:35;3.28;;;2.15;;
7737;SDS011;29398;45.328;5.558;2024-02-23T00:56:36;2.38;;;1.88;;
7737;SDS011;29398;45.328;5.558;2024-02-23T00:57:39;3.40;;;1.92;;
7737;SDS011;29398;45.328;5.558;2024-02-23T00:58:40;2.47;;;1.70;;
7737;SDS011;29398;45.328;5.558;2024-02-23T00:59:41;1.40;;;1.30;;
7737;SDS011;29398;45.328;5.558;2024-02-23T01:00:43;2.28;;;1.35;;
7737;SDS011;29398;45.328;5.558;2024-02-23T01:01:44;1.65;;;1.40;;
7737;SDS011;29398;45.328;5.558;2024-02-23T01:02:47;1.40;;;1.30;;
7737;SDS011;29398;45.328;5.558;2024-02-23T01:03:48;2.00;;;1.33;;
7737;SDS011;29398;45.328;5.558;2024-02-23T01:04:50;4.20;;;1.73;;
7737;SDS011;29398;45.328;5.558;2024-02-23T01:05:51;1.92;;;1.20;;
7737;SDS011;29398;45.328;5.558;2024-02-23T01:06:53;1.98;;;1.35;;
7737;SDS011;29398;45.328;5.558;2024-02-23T01:07:54;2.53;;;1.40;;
7737;SDS011;29398;45.328;5.558;2024-02-23T01:08:56;1.10;;;1.00;;
7737;SDS011;29398;45.328;5.558;2024-02-23T01:09:57;1.33;;;1.10;;
7737;SDS011;29398;45.328;5.558;2024-02-23T01:11:01;1.33;;;1.05;;
7737;SDS011;29398;45.328;5.558;2024-02-23T01:12:02;4.95;;;1.17;;
7737;SDS011;29398;45.328;5.558;2024-02-23T01:13:05;1.60;;;1.10;;
7737;SDS011;29398;45.328;5.558;2024-02-23T01:14:06;2.40;;;1.00;;
7737;SDS011;29398;45.328;5.558;2024-02-23T01:15:08;2.13;;;1.10;;
7737;SDS011;29398;45.328;5.558;2024-02-23T01:16:09;1.90;;;1.20;;
7737;SDS011;29398;45.328;5.558;2024-02-23T01:17:11;2.78;;;1.10;;
7737;SDS011;29398;45.328;5.558;2024-02-23T01:18:12;2.08;;;1.10;;
7737;SDS011;29398;45.328;5.558;2024-02-23T01:19:14;2.13;;;1.17;;
7737;SDS011;29398;45.328;5.558;2024-02-23T01:20:16;1.63;;;0.90;;
7737;SDS011;29398;45.328;5.558;2024-02-23T01:21:18;1.42;;;1.20;;
7737;SDS011;29398;45.328;5.558;2024-02-23T01:22:19;1.30;;;1.17;;
7737;SDS011;29398;45.328;5.558;2024-02-23T01:23:21;2.28;;;1.20;;
7737;SDS011;29398;45.328;5.558;2024-02-23T01:24:22;1.08;;;0.88;;
7737;SDS011;29398;45.328;5.558;2024-02-23T01:25:26;1.13;;;0.90;;
7737;SDS011;29398;45.328;5.558;2024-02-23T01:26:28;1.00;;;0.90;;
7737;SDS011;29398;45.328;5.558;2024-02-23T01:27:31;1.80;;;0.95;;
7737;SDS011;29398;45.328;5.558;2024-02-23T01:28:32;1.88;;;0.82;;
7737;SDS011;29398;45.328;5.558;2024-02-23T01:29:34;0.98;;;0.88;;
7737;SDS011;29398;45.328;5.558;2024-02-23T01:30:35;0.68;;;0.68;;
7737;SDS011;29398;45.328;5.558;2024-02-23T01:31:37;0.80;;;0.80;;
7737;SDS011;29398;45.328;5.558;2024-02-23T01:32:38;0.82;;;0.80;;
7737;SDS011;29398;45.328;5.558;2024-02-23T01:33:40;1.55;;;0.90;;
7737;SDS011;29398;45.328;5.558;2024-02-23T01:34:41;1.15;;;1.00;;
7737;SDS011;29398;45.328;5.558;2024-02-23T01:35:43;1.33;;;0.60;;
7737;SDS011;29398;45.328;5.558;2024-02-23T01:36:44;0.68;;;0.68;;
7737;SDS011;29398;45.328;5.558;2024-02-23T01:37:47;2.03;;;0.75;;
7737;SDS011;29398;45.328;5.558;2024-02-23T01:38:48;1.48;;;1.05;;
7737;SDS011;29398;45.328;5.558;2024-02-23T01:39:50;1.38;;;1.00;;
7737;SDS011;29398;45.328;5.558;2024-02-23T01:40:52;1.38;;;1.02;;
7737;SDS011;29398;45.328;5.558;2024-02-23T01:41:55;1.13;;;0.80;;
7737;SDS011;29398;45.328;5.558;2024-02-23T01:43:00;2.03;;;0.95;;
7737;SDS011;29398;45.328;5.558;2024-02-23T01:44:03;1.52;;;0.77;;
7737;SDS011;29398;45.328;5.558;2024-02-23T01:45:04;2.03;;;1.15;;
7737;SDS011;29398;45.328;5.558;2024-02-23T01:46:07;1.60;;;1.40;;
7737;SDS011;29398;45.328;5.558;2024-02-23T01:47:09;1.35;;;0.80;;
7737;SDS011;29398;45.328;5.558;2024-02-23T01:48:11;1.52;;;0.88;;
7737;SDS011;29398;45.328;5.558;2024-02-23T01:49:13;4.15;;;2.20;;
7737;SDS011;29398;45.328;5.558;2024-02-23T01:50:15;2.65;;;1.30;;
7737;SDS011;29398;45.328;5.558;2024-02-23T01:51:16;2.85;;;1.60;;
7737;SDS011;29398;45.328;5.558;2024-02-23T01:52:18;2.83;;;1.30;;
7737;SDS011;29398;45.328;5.558;2024-02-23T01:53:20;1.70;;;1.05;;
7737;SDS011;29398;45.328;5.558;2024-02-23T01:54:24;3.45;;;1.42;;
7737;SDS011;29398;45.328;5.558;2024-02-23T01:55:26;3.25;;;1.40;;
7737;SDS011;29398;45.328;5.558;2024-02-23T01:56:28;3.60;;;1.20;;
7737;SDS011;29398;45.328;5.558;2024-02-23T01:57:32;2.60;;;1.10;;
7737;SDS011;29398;45.328;5.558;2024-02-23T01:58:34;2.50;;;1.10;;
7737;SDS011;29398;45.328;5.558;2024-02-23T01:59:37;3.90;;;1.17;;
7737;SDS011;29398;45.328;5.558;2024-02-23T02:00:39;1.73;;;1.00;;
7737;SDS011;29398;45.328;5.558;2024-02-23T02:01:41;3.13;;;1.20;;
7737;SDS011;29398;45.328;5.558;2024-02-23T02:02:44;2.45;;;0.98;;
7737;SDS011;29398;45.328;5.558;2024-02-23T02:03:45;3.53;;;1.10;;
7737;SDS011;29398;45.328;5.558;2024-02-23T02:04:47;2.72;;;1.13;;
7737;SDS011;29398;45.328;5.558;2024-02-23T02:05:48;3.88;;;1.25;;
7737;SDS011;29398;45.328;5.558;2024-02-23T02:06:51;2.42;;;0.95;;
7737;SDS011;29398;45.328;5.558;2024-02-23T02:07:53;3.47;;;1.55;;
7737;SDS011;29398;45.328;5.558;2024-02-23T02:08:59;4.28;;;1.70;;
7737;SDS011;29398;45.328;5.558;2024-02-23T02:10:00;3.15;;;1.30;;
7737;SDS011;29398;45.328;5.558;2024-02-23T02:11:04;4.30;;;1.48;;
7737;SDS011;29398;45.328;5.558;2024-02-23T02:12:06;1.98;;;1.23;;
7737;SDS011;29398;45.328;5.558;2024-02-23T02:13:08;3.88;;;1.30;;
7737;SDS011;29398;45.328;5.558;2024-02-23T02:14:10;3.75;;;1.42;;
7737;SDS011;29398;45.328;5.558;2024-02-23T02:15:11;5.60;;;1.60;;
7737;SDS011;29398;45.328;5.558;2024-02-23T02:16:12;3.47;;;1.02;;
7737;SDS011;29398;45.328;5.558;2024-02-23T02:17:14;5.15;;;1.30;;
7737;SDS011;29398;45.328;5.558;2024-02-23T02:18:15;2.83;;;1.10;;
7737;SDS011;29398;45.328;5.558;2024-02-23T02:19:17;3.45;;;1.23;;
7737;SDS011;29398;45.328;5.558;2024-02-23T02:20:18;2.08;;;1.08;;
7737;SDS011;29398;45.328;5.558;2024-02-23T02:21:26;3.10;;;0.93;;
7737;SDS011;29398;45.328;5.558;2024-02-23T02:22:31;2.25;;;1.10;;
7737;SDS011;29398;45.328;5.558;2024-02-23T02:23:33;3.60;;;1.15;;
7737;SDS011;29398;45.328;5.558;2024-02-23T02:24:34;4.25;;;1.10;;
7737;SDS011;29398;45.328;5.558;2024-02-23T02:25:37;3.97;;;1.10;;
7737;SDS011;29398;45.328;5.558;2024-02-23T02:26:38;2.92;;;0.77;;
7737;SDS011;29398;45.328;5.558;2024-02-23T02:27:40;2.10;;;0.82;;
7737;SDS011;29398;45.328;5.558;2024-02-23T02:28:42;3.15;;;1.17;;
7737;SDS011;29398;45.328;5.558;2024-02-23T02:29:46;2.35;;;0.80;;
7737;SDS011;29398;45.328;5.558;2024-02-23T02:30:48;2.83;;;1.00;;
7737;SDS011;29398;45.328;5.558;2024-02-23T02:31:49;2.90;;;0.70;;
7737;SDS011;29398;45.328;5.558;2024-02-23T02:32:51;3.75;;;1.10;;
7737;SDS011;29398;45.328;5.558;2024-02-23T02:33:52;2.10;;;0.95;;
7737;SDS011;29398;45.328;5.558;2024-02-23T02:34:54;2.33;;;0.90;;
7737;SDS011;29398;45.328;5.558;2024-02-23T02:35:55;4.90;;;1.13;;
7737;SDS011;29398;45.328;5.558;2024-02-23T02:36:57;2.45;;;1.08;;
7737;SDS011;29398;45.328;5.558;2024-02-23T02:37:58;2.58;;;0.90;;
7737;SDS011;29398;45.328;5.558;2024-02-23T02:38:59;3.10;;;1.30;;
7737;SDS011;29398;45.328;5.558;2024-02-23T02:40:02;1.52;;;0.70;;
7737;SDS011;29398;45.328;5.558;2024-02-23T02:41:03;2.22;;;0.82;;
7737;SDS011;29398;45.328;5.558;2024-02-23T02:42:06;1.98;;;0.77;;
7737;SDS011;29398;45.328;5.558;2024-02-23T02:43:07;3.20;;;0.90;;
7737;SDS011;29398;45.328;5.558;2024-02-23T02:44:13;5.07;;;1.00;;
7737;SDS011;29398;45.328;5.558;2024-02-23T02:45:14;2.83;;;0.80;;
7737;SDS011;29398;45.328;5.558;2024-02-23T02:46:17;3.38;;;1.13;;
7737;SDS011;29398;45.328;5.558;2024-02-23T02:47:18;4.68;;;1.15;;
7737;SDS011;29398;45.328;5.558;2024-02-23T02:48:19;3.53;;;1.00;;
7737;SDS011;29398;45.328;5.558;2024-02-23T02:49:21;1.25;;;0.90;;
7737;SDS011;29398;45.328;5.558;2024-02-23T02:50:23;5.90;;;1.15;;
7737;SDS011;29398;45.328;5.558;2024-02-23T02:51:25;2.88;;;0.90;;
7737;SDS011;29398;45.328;5.558;2024-02-23T02:52:26;2.22;;;0.80;;
7737;SDS011;29398;45.328;5.558;2024-02-23T02:53:28;4.57;;;1.05;;
7737;SDS011;29398;45.328;5.558;2024-02-23T02:54:30;2.55;;;1.10;;
7737;SDS011;29398;45.328;5.558;2024-02-23T02:55:31;2.55;;;0.70;;
7737;SDS011;29398;45.328;5.558;2024-02-23T02:56:33;4.78;;;0.95;;
7737;SDS011;29398;45.328;5.558;2024-02-23T02:57:34;4.38;;;0.93;;
7737;SDS011;29398;45.328;5.558;2024-02-23T02:58:36;3.15;;;0.85;;
7737;SDS011;29398;45.328;5.558;2024-02-23T02:59:39;1.77;;;0.95;;
7737;SDS011;29398;45.328;5.558;2024-02-23T03:00:40;3.30;;;0.80;;
7737;SDS011;29398;45.328;5.558;2024-02-23T03:01:42;5.03;;;0.90;;
7737;SDS011;29398;45.328;5.558;2024-02-23T03:02:43;2.80;;;1.15;;
7737;SDS011;29398;45.328;5.558;2024-02-23T03:03:45;2.10;;;0.98;;
7737;SDS011;29398;45.328;5.558;2024-02-23T03:04:46;1.33;;;0.90;;
7737;SDS011;29398;45.328;5.558;2024-02-23T03:05:47;3.38;;;0.95;;
7737;SDS011;29398;45.328;5.558;2024-02-23T03:06:49;1.98;;;0.90;;
7737;SDS011;29398;45.328;5.558;2024-02-23T03:07:50;3.50;;;1.48;;
7737;SDS011;29398;45.328;5.558;2024-02-23T03:08:53;1.48;;;1.00;;
7737;SDS011;29398;45.328;5.558;2024-02-23T03:09:53;4.10;;;0.90;;
7737;SDS011;29398;45.328;5.558;2024-02-23T03:10:56;3.10;;;1.20;;
7737;SDS011;29398;45.328;5.558;2024-02-23T03:11:57;4.07;;;1.38;;
7737;SDS011;29398;45.328;5.558;2024-02-23T03:12:59;2.70;;;1.30;;
7737;SDS011;29398;45.328;5.558;2024-02-23T03:14:00;4.85;;;1.17;;
7737;SDS011;29398;45.328;5.558;2024-02-23T03:15:05;4.32;;;1.35;;
7737;SDS011;29398;45.328;5.558;2024-02-23T03:16:06;2.55;;;1.00;;
7737;SDS011;29398;45.328;5.558;2024-02-23T03:17:16;4.70;;;1.40;;
7737;SDS011;29398;45.328;5.558;2024-02-23T03:18:17;4.22;;;1.20;;
7737;SDS011;29398;45.328;5.558;2024-02-23T03:19:19;2.95;;;1.25;;
7737;SDS011;29398;45.328;5.558;2024-02-23T03:20:23;3.80;;;1.27;;
7737;SDS011;29398;45.328;5.558;2024-02-23T03:21:25;3.38;;;1.42;;
7737;SDS011;29398;45.328;5.558;2024-02-23T03:22:26;4.07;;;1.52;;
7737;SDS011;29398;45.328;5.558;2024-02-23T03:23:28;5.57;;;1.90;;
7737;SDS011;29398;45.328;5.558;2024-02-23T03:24:30;4.40;;;1.50;;
7737;SDS011;29398;45.328;5.558;2024-02-23T03:25:32;3.30;;;1.75;;
7737;SDS011;29398;45.328;5.558;2024-02-23T03:26:33;2.25;;;1.65;;
7737;SDS011;29398;45.328;5.558;2024-02-23T03:27:36;2.33;;;1.70;;
7737;SDS011;29398;45.328;5.558;2024-02-23T03:28:37;4.78;;;1.98;;
7737;SDS011;29398;45.328;5.558;2024-02-23T03:29:39;3.13;;;1.70;;
7737;SDS011;29398;45.328;5.558;2024-02-23T03:30:41;3.63;;;1.70;;
7737;SDS011;29398;45.328;5.558;2024-02-23T03:31:43;3.95;;;2.10;;
7737;SDS011;29398;45.328;5.558;2024-02-23T03:32:45;4.20;;;2.40;;
7737;SDS011;29398;45.328;5.558;2024-02-23T03:33:47;4.40;;;2.67;;
7737;SDS011;29398;45.328;5.558;2024-02-23T03:34:48;6.00;;;2.55;;
7737;SDS011;29398;45.328;5.558;2024-02-23T03:35:50;3.38;;;2.00;;
7737;SDS011;29398;45.328;5.558;2024-02-23T03:36:51;4.40;;;2.17;;
7737;SDS011;29398;45.328;5.558;2024-02-23T03:37:53;4.45;;;2.10;;
7737;SDS011;29398;45.328;5.558;2024-02-23T03:38:54;3.63;;;1.80;;
7737;SDS011;29398;45.328;5.558;2024-02-23T03:39:56;2.63;;;1.83;;
7737;SDS011;29398;45.328;5.558;2024-02-23T03:40:58;5.82;;;2.28;;
7737;SDS011;29398;45.328;5.558;2024-02-23T03:42:00;5.82;;;1.80;;
7737;SDS011;29398;45.328;5.558;2024-02-23T03:43:01;2.20;;;1.60;;
7737;SDS011;29398;45.328;5.558;2024-02-23T03:44:03;5.75;;;2.03;;
7737;SDS011;29398;45.328;5.558;2024-02-23T03:45:04;2.30;;;1.77;;
7737;SDS011;29398;45.328;5.558;2024-02-23T03:46:07;5.45;;;1.70;;
7737;SDS011;29398;45.328;5.558;2024-02-23T03:47:09;2.38;;;1.55;;
7737;SDS011;29398;45.328;5.558;2024-02-23T03:48:10;2.70;;;1.60;;
7737;SDS011;29398;45.328;5.558;2024-02-23T03:49:12;3.90;;;1.90;;
7737;SDS011;29398;45.328;5.558;2024-02-23T03:50:13;4.20;;;1.67;;
7737;SDS011;29398;45.328;5.558;2024-02-23T03:51:16;2.67;;;1.67;;
7737;SDS011;29398;45.328;5.558;2024-02-23T03:52:17;3.20;;;1.70;;
7737;SDS011;29398;45.328;5.558;2024-02-23T03:53:19;2.90;;;1.65;;
7737;SDS011;29398;45.328;5.558;2024-02-23T03:54:20;3.22;;;1.60;;
7737;SDS011;29398;45.328;5.558;2024-02-23T03:55:22;2.85;;;1.45;;
7737;SDS011;29398;45.328;5.558;2024-02-23T03:56:23;3.88;;;1.70;;
7737;SDS011;29398;45.328;5.558;2024-02-23T03:57:24;5.18;;;1.58;;
7737;SDS011;29398;45.328;5.558;2024-02-23T03:58:26;3.65;;;1.40;;
7737;SDS011;29398;45.328;5.558;2024-02-23T03:59:27;2.97;;;1.40;;
7737;SDS011;29398;45.328;5.558;2024-02-23T04:00:29;5.10;;;2.00;;
7737;SDS011;29398;45.328;5.558;2024-02-23T04:01:31;2.50;;;1.50;;
7737;SDS011;29398;45.328;5.558;2024-02-23T04:02:33;4.57;;;1.35;;
7737;SDS011;29398;45.328;5.558;2024-02-23T04:03:35;6.18;;;1.58;;
7737;SDS011;29398;45.328;5.558;2024-02-23T04:04:37;5.15;;;1.40;;
7737;SDS011;29398;45.328;5.558;2024-02-23T04:05:38;6.70;;;1.50;;
7737;SDS011;29398;45.328;5.558;2024-02-23T04:06:40;2.80;;;1.33;;
7737;SDS011;29398;45.328;5.558;2024-02-23T04:07:41;1.83;;;1.10;;
7737;SDS011;29398;45.328;5.558;2024-02-23T04:08:43;4.25;;;1.58;;
7737;SDS011;29398;45.328;5.558;2024-02-23T04:09:44;4.50;;;1.38;;
7737;SDS011;29398;45.328;5.558;2024-02-23T04:10:52;3.88;;;1.48;;
7737;SDS011;29398;45.328;5.558;2024-02-23T04:11:53;1.95;;;1.23;;
7737;SDS011;29398;45.328;5.558;2024-02-23T04:12:55;4.97;;;1.35;;
7737;SDS011;29398;45.328;5.558;2024-02-23T04:13:56;4.47;;;1.30;;
7737;SDS011;29398;45.328;5.558;2024-02-23T04:14:58;3.38;;;1.20;;
7737;SDS011;29398;45.328;5.558;2024-02-23T04:16:00;4.03;;;1.30;;
7737;SDS011;29398;45.328;5.558;2024-02-23T04:17:04;5.80;;;1.50;;
7737;SDS011;29398;45.328;5.558;2024-02-23T04:18:05;4.97;;;1.48;;
7737;SDS011;29398;45.328;5.558;2024-02-23T04:19:07;3.13;;;1.50;;
7737;SDS011;29398;45.328;5.558;2024-02-23T04:20:09;2.47;;;1.60;;
7737;SDS011;29398;45.328;5.558;2024-02-23T04:21:11;4.20;;;1.70;;
7737;SDS011;29398;45.328;5.558;2024-02-23T04:22:12;13.07;;;1.65;;
7737;SDS011;29398;45.328;5.558;2024-02-23T04:23:14;4.18;;;1.60;;
7737;SDS011;29398;45.328;5.558;2024-02-23T04:24:15;5.13;;;2.05;;
7737;SDS011;29398;45.328;5.558;2024-02-23T04:25:17;5.90;;;1.88;;
7737;SDS011;29398;45.328;5.558;2024-02-23T04:26:18;4.38;;;1.85;;
7737;SDS011;29398;45.328;5.558;2024-02-23T04:27:19;7.95;;;2.00;;
7737;SDS011;29398;45.328;5.558;2024-02-23T04:28:21;5.15;;;2.00;;
7737;SDS011;29398;45.328;5.558;2024-02-23T04:29:22;4.65;;;1.83;;
7737;SDS011;29398;45.328;5.558;2024-02-23T04:30:24;1.92;;;1.60;;
7737;SDS011;29398;45.328;5.558;2024-02-23T04:31:25;5.43;;;1.95;;
7737;SDS011;29398;45.328;5.558;2024-02-23T04:32:28;3.67;;;1.88;;
7737;SDS011;29398;45.328;5.558;2024-02-23T04:33:30;5.55;;;1.98;;
7737;SDS011;29398;45.328;5.558;2024-02-23T04:34:31;2.95;;;1.88;;
7737;SDS011;29398;45.328;5.558;2024-02-23T04:35:33;4.60;;;2.10;;
7737;SDS011;29398;45.328;5.558;2024-02-23T04:36:34;3.30;;;1.88;;
7737;SDS011;29398;45.328;5.558;2024-02-23T04:37:36;5.63;;;2.05;;
7737;SDS011;29398;45.328;5.558;2024-02-23T04:38:37;4.95;;;1.90;;
7737;SDS011;29398;45.328;5.558;2024-02-23T04:39:39;7.70;;;2.10;;
7737;SDS011;29398;45.328;5.558;2024-02-23T04:40:42;6.18;;;2.00;;
7737;SDS011;29398;45.328;5.558;2024-02-23T04:41:43;3.38;;;1.50;;
7737;SDS011;29398;45.328;5.558;2024-02-23T04:42:45;4.60;;;2.08;;
7737;SDS011;29398;45.328;5.558;2024-02-23T04:43:47;2.65;;;1.70;;
7737;SDS011;29398;45.328;5.558;2024-02-23T04:44:49;4.15;;;1.67;;
7737;SDS011;29398;45.328;5.558;2024-02-23T04:45:53;2.53;;;1.80;;
7737;SDS011;29398;45.328;5.558;2024-02-23T04:46:54;3.88;;;1.80;;
7737;SDS011;29398;45.328;5.558;2024-02-23T04:47:57;3.65;;;1.77;;
7737;SDS011;29398;45.328;5.558;2024-02-23T04:48:58;5.45;;;2.10;;
7737;SDS011;29398;45.328;5.558;2024-02-23T04:49:59;2.42;;;1.80;;
7737;SDS011;29398;45.328;5.558;2024-02-23T04:51:03;4.25;;;1.90;;
7737;SDS011;29398;45.328;5.558;2024-02-23T04:52:05;4.90;;;1.50;;
7737;SDS011;29398;45.328;5.558;2024-02-23T04:53:07;5.03;;;1.90;;
7737;SDS011;29398;45.328;5.558;2024-02-23T04:54:08;3.35;;;2.00;;
7737;SDS011;29398;45.328;5.558;2024-02-23T04:55:10;4.07;;;2.05;;
7737;SDS011;29398;45.328;5.558;2024-02-23T04:56:11;3.67;;;1.65;;
7737;SDS011;29398;45.328;5.558;2024-02-23T04:57:12;5.85;;;2.08;;
7737;SDS011;29398;45.328;5.558;2024-02-23T04:58:15;5.05;;;2.08;;
7737;SDS011;29398;45.328;5.558;2024-02-23T04:59:16;3.40;;;1.70;;
7737;SDS011;29398;45.328;5.558;2024-02-23T05:00:18;5.85;;;2.25;;
7737;SDS011;29398;45.328;5.558;2024-02-23T05:01:20;4.40;;;2.58;;
7737;SDS011;29398;45.328;5.558;2024-02-23T05:02:22;4.45;;;2.10;;
7737;SDS011;29398;45.328;5.558;2024-02-23T05:03:24;5.00;;;2.00;;
7737;SDS011;29398;45.328;5.558;2024-02-23T05:04:26;4.22;;;2.53;;
7737;SDS011;29398;45.328;5.558;2024-02-23T05:05:28;2.83;;;2.22;;
7737;SDS011;29398;45.328;5.558;2024-02-23T05:06:31;3.53;;;1.92;;
7737;SDS011;29398;45.328;5.558;2024-02-23T05:07:32;13.52;;;2.72;;
7737;SDS011;29398;45.328;5.558;2024-02-23T05:08:34;4.68;;;1.90;;
7737;SDS011;29398;45.328;5.558;2024-02-23T05:09:35;5.25;;;2.00;;
7737;SDS011;29398;45.328;5.558;2024-02-23T05:10:37;8.07;;;2.50;;
7737;SDS011;29398;45.328;5.558;2024-02-23T05:11:38;4.10;;;2.30;;
7737;SDS011;29398;45.328;5.558;2024-02-23T05:12:40;5.57;;;2.55;;
7737;SDS011;29398;45.328;5.558;2024-02-23T05:13:41;5.15;;;2.45;;
7737;SDS011;29398;45.328;5.558;2024-02-23T05:14:43;5.18;;;2.88;;
7737;SDS011;29398;45.328;5.558;2024-02-23T05:15:44;5.45;;;2.83;;
7737;SDS011;29398;45.328;5.558;2024-02-23T05:16:45;4.75;;;2.95;;
7737;SDS011;29398;45.328;5.558;2024-02-23T05:17:47;13.73;;;3.40;;
7737;SDS011;29398;45.328;5.558;2024-02-23T05:18:50;9.80;;;3.05;;
7737;SDS011;29398;45.328;5.558;2024-02-23T05:19:52;8.88;;;3.25;;
7737;SDS011;29398;45.328;5.558;2024-02-23T05:20:53;4.22;;;2.67;;
7737;SDS011;29398;45.328;5.558;2024-02-23T05:21:55;6.85;;;3.28;;
7737;SDS011;29398;45.328;5.558;2024-02-23T05:22:56;5.70;;;3.00;;
7737;SDS011;29398;45.328;5.558;2024-02-23T05:23:58;5.45;;;3.05;;
7737;SDS011;29398;45.328;5.558;2024-02-23T05:24:59;6.50;;;2.40;;
7737;SDS011;29398;45.328;5.558;2024-02-23T05:26:01;4.75;;;2.78;;
7737;SDS011;29398;45.328;5.558;2024-02-23T05:27:02;4.35;;;2.30;;
7737;SDS011;29398;45.328;5.558;2024-02-23T05:28:05;6.15;;;2.75;;
7737;SDS011;29398;45.328;5.558;2024-02-23T05:29:06;5.43;;;2.72;;
7737;SDS011;29398;45.328;5.558;2024-02-23T05:30:08;4.93;;;2.78;;
7737;SDS011;29398;45.328;5.558;2024-02-23T05:31:10;6.53;;;2.70;;
7737;SDS011;29398;45.328;5.558;2024-02-23T05:32:12;4.88;;;2.67;;
7737;SDS011;29398;45.328;5.558;2024-02-23T05:33:13;6.43;;;2.85;;
7737;SDS011;29398;45.328;5.558;2024-02-23T05:34:16;4.43;;;2.78;;
7737;SDS011;29398;45.328;5.558;2024-02-23T05:35:18;4.70;;;2.83;;
7737;SDS011;29398;45.328;5.558;2024-02-23T05:36:19;3.60;;;2.50;;
7737;SDS011;29398;45.328;5.558;2024-02-23T05:37:21;2.88;;;2.40;;
7737;SDS011;29398;45.328;5.558;2024-02-23T05:38:23;5.78;;;2.90;;
7737;SDS011;29398;45.328;5.558;2024-02-23T05:39:25;4.53;;;2.50;;
7737;SDS011;29398;45.328;5.558;2024-02-23T05:40:26;6.20;;;2.80;;
7737;SDS011;29398;45.328;5.558;2024-02-23T05:41:28;4.18;;;2.90;;
7737;SDS011;29398;45.328;5.558;2024-02-23T05:42:29;8.07;;;2.80;;
7737;SDS011;29398;45.328;5.558;2024-02-23T05:43:31;9.40;;;2.70;;
7737;SDS011;29398;45.328;5.558;2024-02-23T05:44:32;4.93;;;2.72;;
7737;SDS011;29398;45.328;5.558;2024-02-23T05:45:34;4.97;;;2.40;;
7737;SDS011;29398;45.328;5.558;2024-02-23T05:46:35;4.80;;;2.72;;
7737;SDS011;29398;45.328;5.558;2024-02-23T05:47:38;5.47;;;2.60;;
7737;SDS011;29398;45.328;5.558;2024-02-23T05:48:39;5.28;;;2.65;;
7737;SDS011;29398;45.328;5.558;2024-02-23T05:49:42;7.78;;;2.67;;
7737;SDS011;29398;45.328;5.558;2024-02-23T05:50:43;5.10;;;2.50;;
7737;SDS011;29398;45.328;5.558;2024-02-23T05:51:46;4.95;;;2.33;;
7737;SDS011;29398;45.328;5.558;2024-02-23T05:52:47;4.28;;;2.17;;
7737;SDS011;29398;45.328;5.558;2024-02-23T05:53:48;5.75;;;2.33;;
7737;SDS011;29398;45.328;5.558;2024-02-23T05:54:50;8.85;;;2.10;;
7737;SDS011;29398;45.328;5.558;2024-02-23T05:55:52;8.35;;;3.00;;
7737;SDS011;29398;45.328;5.558;2024-02-23T05:56:54;4.82;;;2.70;;
7737;SDS011;29398;45.328;5.558;2024-02-23T05:57:55;5.57;;;2.25;;
7737;SDS011;29398;45.328;5.558;2024-02-23T05:58:57;10.98;;;2.83;;
7737;SDS011;29398;45.328;5.558;2024-02-23T05:59:58;7.30;;;3.90;;
7737;SDS011;29398;45.328;5.558;2024-02-23T06:01:00;8.25;;;3.88;;
7737;SDS011;29398;45.328;5.558;2024-02-23T06:02:02;10.18;;;4.10;;
7737;SDS011;29398;45.328;5.558;2024-02-23T06:03:04;7.30;;;4.03;;
7737;SDS011;29398;45.328;5.558;2024-02-23T06:04:05;13.50;;;4.40;;
7737;SDS011;29398;45.328;5.558;2024-02-23T06:05:09;10.35;;;4.45;;
7737;SDS011;29398;45.328;5.558;2024-02-23T06:06:10;9.10;;;4.50;;
7737;SDS011;29398;45.328;5.558;2024-02-23T06:07:12;15.85;;;5.72;;
7737;SDS011;29398;45.328;5.558;2024-02-23T06:08:15;18.98;;;7.65;;
7737;SDS011;29398;45.328;5.558;2024-02-23T06:09:17;17.58;;;7.03;;
7737;SDS011;29398;45.328;5.558;2024-02-23T06:10:19;18.40;;;7.32;;
7737;SDS011;29398;45.328;5.558;2024-02-23T06:11:21;17.45;;;7.30;;
7737;SDS011;29398;45.328;5.558;2024-02-23T06:12:22;18.20;;;6.95;;
7737;SDS011;29398;45.328;5.558;2024-02-23T06:13:24;18.85;;;7.40;;
7737;SDS011;29398;45.328;5.558;2024-02-23T06:14:25;13.95;;;6.50;;
7737;SDS011;29398;45.328;5.558;2024-02-23T06:15:27;13.45;;;5.68;;
7737;SDS011;29398;45.328;5.558;2024-02-23T06:16:28;10.77;;;5.53;;
7737;SDS011;29398;45.328;5.558;2024-02-23T06:17:29;13.63;;;5.47;;
7737;SDS011;29398;45.328;5.558;2024-02-23T06:18:31;12.63;;;5.35;;